sensor_id;sensor_type;location;lat;lon;timestamp;P1;durP1;ratioP1;P2;durP2;ratioP2
13708;SDS011;54933;51.908;7.730;2023-11-18T00:01:02;2.33;;;2.23;;
13708;SDS011;54933;51.908;7.730;2023-11-18T00:03:28;2.30;;;2.20;;
13708;SDS011;54933;51.908;7.730;2023-11-18T00:05:53;2.87;;;2.57;;
13708;SDS011;54933;51.908;7.730;2023-11-18T00:08:19;2.17;;;2.07;;
13708;SDS011;54933;51.908;7.730;2023-11-18T00:10:44;3.40;;;2.13;;
13708;SDS011;54933;51.908;7.730;2023-11-18T00:13:10;2.37;;;2.17;;
13708;SDS011;54933;51.908;7.730;2023-11-18T00:15:35;2.57;;;2.00;;
13708;SDS011;54933;51.908;7.730;2023-11-18T00:18:00;2.43;;;2.23;;
13708;SDS011;54933;51.908;7.730;2023-11-18T00:20:26;2.40;;;2.20;;
13708;SDS011;54933;51.908;7.730;2023-11-18T00:22:51;2.07;;;1.90;;
13708;SDS011;54933;51.908;7.730;2023-11-18T00:25:18;2.20;;;2.10;;
13708;SDS011;54933;51.908;7.730;2023-11-18T00:27:43;2.53;;;2.33;;
13708;SDS011;54933;51.908;7.730;2023-11-18T00:30:08;2.00;;;1.90;;
13708;SDS011;54933;51.908;7.730;2023-11-18T00:32:35;2.47;;;2.13;;
13708;SDS011;54933;51.908;7.730;2023-11-18T00:35:01;2.50;;;2.30;;
13708;SDS011;54933;51.908;7.730;2023-11-18T00:37:29;2.37;;;2.10;;
13708;SDS011;54933;51.908;7.730;2023-11-18T00:39:54;1.87;;;1.77;;
13708;SDS011;54933;51.908;7.730;2023-11-18T00:42:20;1.80;;;1.70;;
13708;SDS011;54933;51.908;7.730;2023-11-18T00:44:45;2.10;;;2.00;;
13708;SDS011;54933;51.908;7.730;2023-11-18T00:47:10;1.90;;;1.80;;
13708;SDS011;54933;51.908;7.730;2023-11-18T00:49:35;2.23;;;2.10;;
13708;SDS011;54933;51.908;7.730;2023-11-18T00:52:01;2.30;;;2.10;;
13708;SDS011;54933;51.908;7.730;2023-11-18T00:54:26;2.07;;;1.97;;
13708;SDS011;54933;51.908;7.730;2023-11-18T00:56:52;2.20;;;2.10;;
13708;SDS011;54933;51.908;7.730;2023-11-18T00:59:17;2.00;;;1.90;;
13708;SDS011;54933;51.908;7.730;2023-11-18T01:01:42;2.20;;;2.10;;
13708;SDS011;54933;51.908;7.730;2023-11-18T01:04:07;2.47;;;2.27;;
13708;SDS011;54933;51.908;7.730;2023-11-18T01:06:33;2.10;;;2.00;;
13708;SDS011;54933;51.908;7.730;2023-11-18T01:08:59;1.70;;;1.60;;
13708;SDS011;54933;51.908;7.730;2023-11-18T01:11:24;1.87;;;1.77;;
13708;SDS011;54933;51.908;7.730;2023-11-18T01:13:50;1.87;;;1.77;;
13708;SDS011;54933;51.908;7.730;2023-11-18T01:16:15;1.97;;;1.87;;
13708;SDS011;54933;51.908;7.730;2023-11-18T01:18:41;2.30;;;2.10;;
13708;SDS011;54933;51.908;7.730;2023-11-18T01:21:07;1.97;;;1.87;;
13708;SDS011;54933;51.908;7.730;2023-11-18T01:23:36;1.83;;;1.73;;
13708;SDS011;54933;51.908;7.730;2023-11-18T01:26:01;1.80;;;1.70;;
13708;SDS011;54933;51.908;7.730;2023-11-18T01:28:30;2.90;;;1.97;;
13708;SDS011;54933;51.908;7.730;2023-11-18T01:31:02;1.77;;;1.67;;
13708;SDS011;54933;51.908;7.730;2023-11-18T01:33:29;1.77;;;1.67;;
13708;SDS011;54933;51.908;7.730;2023-11-18T01:35:54;2.00;;;1.90;;
13708;SDS011;54933;51.908;7.730;2023-11-18T01:38:20;1.73;;;1.73;;
13708;SDS011;54933;51.908;7.730;2023-11-18T01:40:45;1.90;;;1.80;;
13708;SDS011;54933;51.908;7.730;2023-11-18T01:43:10;1.43;;;1.43;;
13708;SDS011;54933;51.908;7.730;2023-11-18T01:45:38;1.90;;;1.80;;
13708;SDS011;54933;51.908;7.730;2023-11-18T01:48:05;1.67;;;1.57;;
13708;SDS011;54933;51.908;7.730;2023-11-18T01:50:32;2.20;;;2.00;;
13708;SDS011;54933;51.908;7.730;2023-11-18T01:52:58;2.10;;;1.90;;
13708;SDS011;54933;51.908;7.730;2023-11-18T01:55:25;1.90;;;1.80;;
13708;SDS011;54933;51.908;7.730;2023-11-18T01:57:51;1.83;;;1.73;;
13708;SDS011;54933;51.908;7.730;2023-11-18T02:00:16;1.80;;;1.70;;
13708;SDS011;54933;51.908;7.730;2023-11-18T02:02:42;1.80;;;1.70;;
13708;SDS011;54933;51.908;7.730;2023-11-18T02:05:08;1.77;;;1.67;;
13708;SDS011;54933;51.908;7.730;2023-11-18T02:07:33;1.97;;;1.87;;
13708;SDS011;54933;51.908;7.730;2023-11-18T02:10:03;2.20;;;2.10;;
13708;SDS011;54933;51.908;7.730;2023-11-18T02:12:38;2.10;;;1.80;;
13708;SDS011;54933;51.908;7.730;2023-11-18T02:15:23;2.10;;;2.00;;
13708;SDS011;54933;51.908;7.730;2023-11-18T02:17:50;1.80;;;1.70;;
13708;SDS011;54933;51.908;7.730;2023-11-18T02:20:18;1.90;;;1.80;;
13708;SDS011;54933;51.908;7.730;2023-11-18T02:22:46;2.67;;;1.80;;
13708;SDS011;54933;51.908;7.730;2023-11-18T02:25:16;1.80;;;1.70;;
13708;SDS011;54933;51.908;7.730;2023-11-18T02:27:42;2.23;;;2.10;;
13708;SDS011;54933;51.908;7.730;2023-11-18T02:30:08;1.90;;;1.80;;
13708;SDS011;54933;51.908;7.730;2023-11-18T02:35:38;1.80;;;1.70;;
13708;SDS011;54933;51.908;7.730;2023-11-18T02:38:09;1.70;;;1.60;;
13708;SDS011;54933;51.908;7.730;2023-11-18T02:40:36;1.50;;;1.50;;
13708;SDS011;54933;51.908;7.730;2023-11-18T02:43:05;2.10;;;1.90;;
13708;SDS011;54933;51.908;7.730;2023-11-18T02:45:32;1.93;;;1.83;;
13708;SDS011;54933;51.908;7.730;2023-11-18T02:48:01;1.83;;;1.73;;
13708;SDS011;54933;51.908;7.730;2023-11-18T02:50:26;1.83;;;1.73;;
13708;SDS011;54933;51.908;7.730;2023-11-18T02:52:54;2.00;;;1.73;;
13708;SDS011;54933;51.908;7.730;2023-11-18T02:55:20;2.20;;;2.10;;
13708;SDS011;54933;51.908;7.730;2023-11-18T02:57:49;1.70;;;1.60;;
13708;SDS011;54933;51.908;7.730;2023-11-18T03:00:16;1.70;;;1.60;;
13708;SDS011;54933;51.908;7.730;2023-11-18T03:02:48;1.90;;;1.80;;
13708;SDS011;54933;51.908;7.730;2023-11-18T03:05:16;1.50;;;1.40;;
13708;SDS011;54933;51.908;7.730;2023-11-18T03:07:42;1.73;;;1.63;;
13708;SDS011;54933;51.908;7.730;2023-11-18T03:10:14;1.83;;;1.73;;
13708;SDS011;54933;51.908;7.730;2023-11-18T03:12:46;1.70;;;1.60;;
13708;SDS011;54933;51.908;7.730;2023-11-18T03:15:12;2.27;;;2.10;;
13708;SDS011;54933;51.908;7.730;2023-11-18T03:17:37;1.53;;;1.47;;
13708;SDS011;54933;51.908;7.730;2023-11-18T03:20:03;1.83;;;1.73;;
13708;SDS011;54933;51.908;7.730;2023-11-18T03:22:33;1.80;;;1.70;;
13708;SDS011;54933;51.908;7.730;2023-11-18T03:24:58;1.67;;;1.67;;
13708;SDS011;54933;51.908;7.730;2023-11-18T03:27:23;1.90;;;1.80;;
13708;SDS011;54933;51.908;7.730;2023-11-18T03:29:49;1.70;;;1.63;;
13708;SDS011;54933;51.908;7.730;2023-11-18T03:32:14;1.77;;;1.67;;
13708;SDS011;54933;51.908;7.730;2023-11-18T03:34:40;1.63;;;1.50;;
13708;SDS011;54933;51.908;7.730;2023-11-18T03:37:05;2.00;;;1.90;;
13708;SDS011;54933;51.908;7.730;2023-11-18T03:39:30;1.70;;;1.60;;
13708;SDS011;54933;51.908;7.730;2023-11-18T03:41:56;1.90;;;1.80;;
13708;SDS011;54933;51.908;7.730;2023-11-18T03:44:22;1.70;;;1.60;;
13708;SDS011;54933;51.908;7.730;2023-11-18T03:46:49;1.90;;;1.80;;
13708;SDS011;54933;51.908;7.730;2023-11-18T03:49:14;1.60;;;1.60;;
13708;SDS011;54933;51.908;7.730;2023-11-18T03:51:39;1.80;;;1.70;;
13708;SDS011;54933;51.908;7.730;2023-11-18T03:54:05;1.90;;;1.80;;
13708;SDS011;54933;51.908;7.730;2023-11-18T03:56:33;1.97;;;1.87;;
13708;SDS011;54933;51.908;7.730;2023-11-18T03:58:58;1.70;;;1.60;;
13708;SDS011;54933;51.908;7.730;2023-11-18T04:01:25;2.07;;;1.80;;
13708;SDS011;54933;51.908;7.730;2023-11-18T04:03:54;1.90;;;1.80;;
13708;SDS011;54933;51.908;7.730;2023-11-18T04:06:20;2.20;;;1.83;;
13708;SDS011;54933;51.908;7.730;2023-11-18T04:08:46;1.90;;;1.80;;
13708;SDS011;54933;51.908;7.730;2023-11-18T04:11:12;1.70;;;1.60;;
13708;SDS011;54933;51.908;7.730;2023-11-18T04:13:39;1.63;;;1.57;;
13708;SDS011;54933;51.908;7.730;2023-11-18T04:16:11;1.70;;;1.60;;
13708;SDS011;54933;51.908;7.730;2023-11-18T04:18:43;1.63;;;1.53;;
13708;SDS011;54933;51.908;7.730;2023-11-18T04:21:09;1.80;;;1.70;;
13708;SDS011;54933;51.908;7.730;2023-11-18T04:23:38;1.60;;;1.60;;
13708;SDS011;54933;51.908;7.730;2023-11-18T04:26:05;1.77;;;1.67;;
13708;SDS011;54933;51.908;7.730;2023-11-18T04:28:32;1.90;;;1.80;;
13708;SDS011;54933;51.908;7.730;2023-11-18T04:30:57;1.87;;;1.77;;
13708;SDS011;54933;51.908;7.730;2023-11-18T04:33:23;1.70;;;1.60;;
13708;SDS011;54933;51.908;7.730;2023-11-18T04:35:49;1.70;;;1.60;;
13708;SDS011;54933;51.908;7.730;2023-11-18T04:38:15;1.53;;;1.53;;
13708;SDS011;54933;51.908;7.730;2023-11-18T04:40:40;3.33;;;1.60;;
13708;SDS011;54933;51.908;7.730;2023-11-18T04:43:06;1.50;;;1.50;;
13708;SDS011;54933;51.908;7.730;2023-11-18T04:45:31;1.53;;;1.53;;
13708;SDS011;54933;51.908;7.730;2023-11-18T04:47:57;1.83;;;1.73;;
13708;SDS011;54933;51.908;7.730;2023-11-18T04:50:22;1.30;;;1.30;;
13708;SDS011;54933;51.908;7.730;2023-11-18T04:52:47;1.50;;;1.50;;
13708;SDS011;54933;51.908;7.730;2023-11-18T04:55:12;2.20;;;2.10;;
13708;SDS011;54933;51.908;7.730;2023-11-18T04:57:38;1.90;;;1.80;;
13708;SDS011;54933;51.908;7.730;2023-11-18T05:00:04;1.50;;;1.50;;
13708;SDS011;54933;51.908;7.730;2023-11-18T05:02:38;1.63;;;1.53;;
13708;SDS011;54933;51.908;7.730;2023-11-18T05:05:04;1.87;;;1.77;;
13708;SDS011;54933;51.908;7.730;2023-11-18T05:07:31;1.70;;;1.60;;
13708;SDS011;54933;51.908;7.730;2023-11-18T05:09:56;2.10;;;2.00;;
13708;SDS011;54933;51.908;7.730;2023-11-18T05:12:22;1.73;;;1.63;;
13708;SDS011;54933;51.908;7.730;2023-11-18T05:14:47;1.97;;;1.87;;
13708;SDS011;54933;51.908;7.730;2023-11-18T05:17:15;2.17;;;1.97;;
13708;SDS011;54933;51.908;7.730;2023-11-18T05:19:40;1.67;;;1.60;;
13708;SDS011;54933;51.908;7.730;2023-11-18T05:22:06;2.10;;;2.00;;
13708;SDS011;54933;51.908;7.730;2023-11-18T05:24:31;1.90;;;1.70;;
13708;SDS011;54933;51.908;7.730;2023-11-18T05:26:57;1.70;;;1.60;;
13708;SDS011;54933;51.908;7.730;2023-11-18T05:29:26;1.60;;;1.50;;
13708;SDS011;54933;51.908;7.730;2023-11-18T05:31:52;1.63;;;1.53;;
13708;SDS011;54933;51.908;7.730;2023-11-18T05:34:19;1.93;;;1.80;;
13708;SDS011;54933;51.908;7.730;2023-11-18T05:36:45;2.00;;;1.90;;
13708;SDS011;54933;51.908;7.730;2023-11-18T05:39:11;1.90;;;1.80;;
13708;SDS011;54933;51.908;7.730;2023-11-18T05:41:36;1.80;;;1.70;;
13708;SDS011;54933;51.908;7.730;2023-11-18T05:44:04;1.90;;;1.80;;
13708;SDS011;54933;51.908;7.730;2023-11-18T05:46:33;1.50;;;1.40;;
13708;SDS011;54933;51.908;7.730;2023-11-18T05:49:01;2.20;;;1.87;;
13708;SDS011;54933;51.908;7.730;2023-11-18T05:51:32;2.10;;;1.90;;
13708;SDS011;54933;51.908;7.730;2023-11-18T05:53:57;1.57;;;1.50;;
13708;SDS011;54933;51.908;7.730;2023-11-18T05:56:22;2.30;;;2.10;;
13708;SDS011;54933;51.908;7.730;2023-11-18T05:58:48;1.70;;;1.60;;
13708;SDS011;54933;51.908;7.730;2023-11-18T06:01:13;1.40;;;1.30;;
13708;SDS011;54933;51.908;7.730;2023-11-18T06:03:39;1.83;;;1.73;;
13708;SDS011;54933;51.908;7.730;2023-11-18T06:06:09;2.00;;;1.90;;
13708;SDS011;54933;51.908;7.730;2023-11-18T06:08:36;1.70;;;1.60;;
13708;SDS011;54933;51.908;7.730;2023-11-18T06:11:06;1.80;;;1.70;;
13708;SDS011;54933;51.908;7.730;2023-11-18T06:13:38;1.43;;;1.40;;
13708;SDS011;54933;51.908;7.730;2023-11-18T06:16:17;1.50;;;1.40;;
13708;SDS011;54933;51.908;7.730;2023-11-18T06:18:46;1.70;;;1.60;;
13708;SDS011;54933;51.908;7.730;2023-11-18T06:21:14;1.80;;;1.70;;
13708;SDS011;54933;51.908;7.730;2023-11-18T06:23:41;1.73;;;1.63;;
13708;SDS011;54933;51.908;7.730;2023-11-18T06:26:07;1.50;;;1.40;;
13708;SDS011;54933;51.908;7.730;2023-11-18T06:28:35;1.77;;;1.67;;
13708;SDS011;54933;51.908;7.730;2023-11-18T06:31:07;1.40;;;1.40;;
13708;SDS011;54933;51.908;7.730;2023-11-18T06:33:40;1.57;;;1.50;;
13708;SDS011;54933;51.908;7.730;2023-11-18T06:36:08;1.70;;;1.60;;
13708;SDS011;54933;51.908;7.730;2023-11-18T06:38:36;1.57;;;1.47;;
13708;SDS011;54933;51.908;7.730;2023-11-18T06:41:01;1.70;;;1.60;;
13708;SDS011;54933;51.908;7.730;2023-11-18T06:43:28;1.70;;;1.60;;
13708;SDS011;54933;51.908;7.730;2023-11-18T06:46:01;1.30;;;1.30;;
13708;SDS011;54933;51.908;7.730;2023-11-18T06:48:26;1.73;;;1.63;;
13708;SDS011;54933;51.908;7.730;2023-11-18T06:50:52;1.80;;;1.70;;
13708;SDS011;54933;51.908;7.730;2023-11-18T06:53:17;1.53;;;1.43;;
13708;SDS011;54933;51.908;7.730;2023-11-18T06:55:42;1.50;;;1.50;;
13708;SDS011;54933;51.908;7.730;2023-11-18T06:58:07;1.70;;;1.60;;
13708;SDS011;54933;51.908;7.730;2023-11-18T07:00:33;1.23;;;1.23;;
13708;SDS011;54933;51.908;7.730;2023-11-18T07:02:58;1.50;;;1.50;;
13708;SDS011;54933;51.908;7.730;2023-11-18T07:05:23;1.80;;;1.70;;
13708;SDS011;54933;51.908;7.730;2023-11-18T07:07:49;1.40;;;1.33;;
13708;SDS011;54933;51.908;7.730;2023-11-18T07:10:15;1.37;;;1.37;;
13708;SDS011;54933;51.908;7.730;2023-11-18T07:12:45;1.50;;;1.40;;
13708;SDS011;54933;51.908;7.730;2023-11-18T07:15:11;1.30;;;1.30;;
13708;SDS011;54933;51.908;7.730;2023-11-18T07:17:36;1.47;;;1.47;;
13708;SDS011;54933;51.908;7.730;2023-11-18T07:20:02;1.73;;;1.63;;
13708;SDS011;54933;51.908;7.730;2023-11-18T07:22:27;1.27;;;1.27;;
13708;SDS011;54933;51.908;7.730;2023-11-18T07:24:53;1.40;;;1.40;;
13708;SDS011;54933;51.908;7.730;2023-11-18T07:27:18;1.50;;;1.40;;
13708;SDS011;54933;51.908;7.730;2023-11-18T07:29:43;1.50;;;1.40;;
13708;SDS011;54933;51.908;7.730;2023-11-18T07:32:10;1.70;;;1.60;;
13708;SDS011;54933;51.908;7.730;2023-11-18T07:34:35;1.50;;;1.40;;
13708;SDS011;54933;51.908;7.730;2023-11-18T07:37:01;1.50;;;1.40;;
13708;SDS011;54933;51.908;7.730;2023-11-18T07:39:27;1.60;;;1.60;;
13708;SDS011;54933;51.908;7.730;2023-11-18T07:42:09;1.60;;;1.50;;
13708;SDS011;54933;51.908;7.730;2023-11-18T07:44:37;1.57;;;1.57;;
13708;SDS011;54933;51.908;7.730;2023-11-18T07:47:06;1.67;;;1.57;;
13708;SDS011;54933;51.908;7.730;2023-11-18T07:49:34;1.40;;;1.30;;
13708;SDS011;54933;51.908;7.730;2023-11-18T07:52:00;1.40;;;1.40;;
13708;SDS011;54933;51.908;7.730;2023-11-18T07:54:29;1.20;;;1.20;;
13708;SDS011;54933;51.908;7.730;2023-11-18T07:56:54;1.60;;;1.50;;
13708;SDS011;54933;51.908;7.730;2023-11-18T07:59:20;1.40;;;1.40;;
13708;SDS011;54933;51.908;7.730;2023-11-18T08:01:45;1.50;;;1.40;;
13708;SDS011;54933;51.908;7.730;2023-11-18T08:04:11;1.20;;;1.20;;
13708;SDS011;54933;51.908;7.730;2023-11-18T08:06:38;1.40;;;1.40;;
13708;SDS011;54933;51.908;7.730;2023-11-18T08:09:04;1.43;;;1.43;;
13708;SDS011;54933;51.908;7.730;2023-11-18T08:11:29;1.40;;;1.30;;
13708;SDS011;54933;51.908;7.730;2023-11-18T08:13:54;1.33;;;1.33;;
13708;SDS011;54933;51.908;7.730;2023-11-18T08:16:20;1.23;;;1.23;;
13708;SDS011;54933;51.908;7.730;2023-11-18T08:18:47;2.43;;;1.30;;
13708;SDS011;54933;51.908;7.730;2023-11-18T08:21:12;1.50;;;1.40;;
13708;SDS011;54933;51.908;7.730;2023-11-18T08:23:38;1.33;;;1.23;;
13708;SDS011;54933;51.908;7.730;2023-11-18T08:26:05;1.47;;;1.40;;
13708;SDS011;54933;51.908;7.730;2023-11-18T08:28:30;1.13;;;1.10;;
13708;SDS011;54933;51.908;7.730;2023-11-18T08:30:56;1.00;;;1.00;;
13708;SDS011;54933;51.908;7.730;2023-11-18T08:33:21;1.53;;;1.43;;
13708;SDS011;54933;51.908;7.730;2023-11-18T08:35:49;2.60;;;1.37;;
13708;SDS011;54933;51.908;7.730;2023-11-18T08:38:14;2.40;;;1.53;;
13708;SDS011;54933;51.908;7.730;2023-11-18T08:40:40;1.20;;;1.20;;
13708;SDS011;54933;51.908;7.730;2023-11-18T08:43:07;1.50;;;1.40;;
13708;SDS011;54933;51.908;7.730;2023-11-18T08:45:33;2.10;;;1.37;;
13708;SDS011;54933;51.908;7.730;2023-11-18T08:48:00;1.20;;;1.20;;
13708;SDS011;54933;51.908;7.730;2023-11-18T08:50:29;1.60;;;1.50;;
13708;SDS011;54933;51.908;7.730;2023-11-18T08:52:56;2.17;;;1.30;;
13708;SDS011;54933;51.908;7.730;2023-11-18T08:55:25;1.37;;;1.30;;
13708;SDS011;54933;51.908;7.730;2023-11-18T08:58:04;2.73;;;1.47;;
13708;SDS011;54933;51.908;7.730;2023-11-18T09:00:43;1.70;;;1.60;;
13708;SDS011;54933;51.908;7.730;2023-11-18T09:03:10;1.60;;;1.50;;
13708;SDS011;54933;51.908;7.730;2023-11-18T09:05:45;2.27;;;1.23;;
13708;SDS011;54933;51.908;7.730;2023-11-18T09:08:24;1.40;;;1.30;;
13708;SDS011;54933;51.908;7.730;2023-11-18T09:11:08;1.20;;;1.20;;
13708;SDS011;54933;51.908;7.730;2023-11-18T09:13:46;1.37;;;1.10;;
13708;SDS011;54933;51.908;7.730;2023-11-18T09:16:25;1.10;;;1.10;;
13708;SDS011;54933;51.908;7.730;2023-11-18T09:18:54;1.23;;;1.23;;
13708;SDS011;54933;51.908;7.730;2023-11-18T09:21:20;1.87;;;1.30;;
13708;SDS011;54933;51.908;7.730;2023-11-18T09:23:49;1.30;;;1.30;;
13708;SDS011;54933;51.908;7.730;2023-11-18T09:26:15;1.70;;;1.17;;
13708;SDS011;54933;51.908;7.730;2023-11-18T09:28:41;1.33;;;1.20;;
13708;SDS011;54933;51.908;7.730;2023-11-18T09:31:07;2.03;;;1.20;;
13708;SDS011;54933;51.908;7.730;2023-11-18T09:33:36;1.23;;;1.20;;
13708;SDS011;54933;51.908;7.730;2023-11-18T09:36:05;0.93;;;0.93;;
13708;SDS011;54933;51.908;7.730;2023-11-18T09:38:37;1.30;;;1.20;;
13708;SDS011;54933;51.908;7.730;2023-11-18T09:41:08;1.83;;;1.37;;
13708;SDS011;54933;51.908;7.730;2023-11-18T09:43:38;17.60;;;3.20;;
13708;SDS011;54933;51.908;7.730;2023-11-18T09:46:13;24.60;;;3.67;;
13708;SDS011;54933;51.908;7.730;2023-11-18T09:48:49;28.60;;;3.43;;
13708;SDS011;54933;51.908;7.730;2023-11-18T09:51:28;26.77;;;3.90;;
13708;SDS011;54933;51.908;7.730;2023-11-18T09:54:04;14.93;;;3.03;;
13708;SDS011;54933;51.908;7.730;2023-11-18T09:56:46;19.63;;;5.03;;
13708;SDS011;54933;51.908;7.730;2023-11-18T09:59:31;150.33;;;15.77;;
13708;SDS011;54933;51.908;7.730;2023-11-18T10:02:00;86.23;;;9.50;;
13708;SDS011;54933;51.908;7.730;2023-11-18T10:04:29;41.63;;;7.27;;
13708;SDS011;54933;51.908;7.730;2023-11-18T10:06:56;42.57;;;5.20;;
13708;SDS011;54933;51.908;7.730;2023-11-18T10:09:25;30.03;;;4.97;;
13708;SDS011;54933;51.908;7.730;2023-11-18T10:12:02;31.57;;;4.00;;
13708;SDS011;54933;51.908;7.730;2023-11-18T10:14:30;32.63;;;3.90;;
13708;SDS011;54933;51.908;7.730;2023-11-18T10:16:59;31.63;;;4.03;;
13708;SDS011;54933;51.908;7.730;2023-11-18T10:22:26;31.93;;;4.10;;
13708;SDS011;54933;51.908;7.730;2023-11-18T10:24:57;32.70;;;4.70;;
13708;SDS011;54933;51.908;7.730;2023-11-18T10:27:24;23.17;;;3.60;;
13708;SDS011;54933;51.908;7.730;2023-11-18T10:29:57;26.17;;;3.60;;
13708;SDS011;54933;51.908;7.730;2023-11-18T10:32:27;31.17;;;4.60;;
13708;SDS011;54933;51.908;7.730;2023-11-18T10:34:56;19.37;;;3.17;;
13708;SDS011;54933;51.908;7.730;2023-11-18T10:37:22;17.33;;;5.03;;
13708;SDS011;54933;51.908;7.730;2023-11-18T10:39:48;13.13;;;6.20;;
13708;SDS011;54933;51.908;7.730;2023-11-18T10:42:16;16.70;;;4.90;;
13708;SDS011;54933;51.908;7.730;2023-11-18T10:44:53;14.97;;;4.00;;
13708;SDS011;54933;51.908;7.730;2023-11-18T10:47:20;16.83;;;3.80;;
13708;SDS011;54933;51.908;7.730;2023-11-18T10:49:46;11.53;;;3.20;;
13708;SDS011;54933;51.908;7.730;2023-11-18T10:52:15;12.70;;;4.07;;
13708;SDS011;54933;51.908;7.730;2023-11-18T10:54:51;14.63;;;3.00;;
13708;SDS011;54933;51.908;7.730;2023-11-18T10:57:19;9.60;;;2.80;;
13708;SDS011;54933;51.908;7.730;2023-11-18T10:59:57;5.03;;;2.37;;
13708;SDS011;54933;51.908;7.730;2023-11-18T11:02:24;6.23;;;2.23;;
13708;SDS011;54933;51.908;7.730;2023-11-18T11:04:49;7.27;;;2.40;;
13708;SDS011;54933;51.908;7.730;2023-11-18T11:07:14;6.83;;;2.13;;
13708;SDS011;54933;51.908;7.730;2023-11-18T11:09:44;4.63;;;2.37;;
13708;SDS011;54933;51.908;7.730;2023-11-18T11:12:11;44.60;;;5.97;;
13708;SDS011;54933;51.908;7.730;2023-11-18T11:15:07;20.57;;;2.73;;
13708;SDS011;54933;51.908;7.730;2023-11-18T11:17:39;7.63;;;1.80;;
13708;SDS011;54933;51.908;7.730;2023-11-18T11:20:11;15.93;;;2.50;;
13708;SDS011;54933;51.908;7.730;2023-11-18T11:28:34;7.37;;;2.30;;
13708;SDS011;54933;51.908;7.730;2023-11-18T11:31:21;6.20;;;2.23;;
13708;SDS011;54933;51.908;7.730;2023-11-18T11:33:56;4.73;;;2.03;;
13708;SDS011;54933;51.908;7.730;2023-11-18T11:36:28;9.43;;;2.13;;
13708;SDS011;54933;51.908;7.730;2023-11-18T11:38:59;5.50;;;1.90;;
13708;SDS011;54933;51.908;7.730;2023-11-18T11:41:26;4.93;;;1.50;;
13708;SDS011;54933;51.908;7.730;2023-11-18T11:43:52;7.43;;;1.57;;
13708;SDS011;54933;51.908;7.730;2023-11-18T11:46:23;7.03;;;1.87;;
13708;SDS011;54933;51.908;7.730;2023-11-18T11:48:52;4.17;;;1.57;;
13708;SDS011;54933;51.908;7.730;2023-11-18T11:51:25;9.07;;;1.53;;
13708;SDS011;54933;51.908;7.730;2023-11-18T11:53:59;6.80;;;1.77;;
13708;SDS011;54933;51.908;7.730;2023-11-18T11:56:41;4.37;;;1.63;;
13708;SDS011;54933;51.908;7.730;2023-11-18T11:59:08;2.33;;;1.20;;
13708;SDS011;54933;51.908;7.730;2023-11-18T12:01:36;3.57;;;1.13;;
13708;SDS011;54933;51.908;7.730;2023-11-18T12:04:08;7.07;;;1.33;;
13708;SDS011;54933;51.908;7.730;2023-11-18T12:06:45;5.20;;;1.50;;
13708;SDS011;54933;51.908;7.730;2023-11-18T12:09:12;5.03;;;1.67;;
13708;SDS011;54933;51.908;7.730;2023-11-18T12:11:44;4.70;;;1.30;;
13708;SDS011;54933;51.908;7.730;2023-11-18T12:14:14;3.33;;;1.53;;
13708;SDS011;54933;51.908;7.730;2023-11-18T12:19:34;3.47;;;0.90;;
13708;SDS011;54933;51.908;7.730;2023-11-18T12:22:17;5.93;;;1.20;;
13708;SDS011;54933;51.908;7.730;2023-11-18T12:24:44;3.13;;;1.23;;
13708;SDS011;54933;51.908;7.730;2023-11-18T12:27:12;3.13;;;1.40;;
13708;SDS011;54933;51.908;7.730;2023-11-18T12:29:41;4.77;;;1.43;;
13708;SDS011;54933;51.908;7.730;2023-11-18T12:32:08;1.90;;;1.30;;
13708;SDS011;54933;51.908;7.730;2023-11-18T12:34:53;3.50;;;1.10;;
13708;SDS011;54933;51.908;7.730;2023-11-18T12:40:15;3.53;;;1.40;;
13708;SDS011;54933;51.908;7.730;2023-11-18T12:43:02;3.27;;;1.37;;
13708;SDS011;54933;51.908;7.730;2023-11-18T12:48:39;1.20;;;1.10;;
13708;SDS011;54933;51.908;7.730;2023-11-18T12:51:09;4.00;;;1.47;;
13708;SDS011;54933;51.908;7.730;2023-11-18T12:53:44;2.40;;;1.20;;
13708;SDS011;54933;51.908;7.730;2023-11-18T12:56:11;4.23;;;1.10;;
13708;SDS011;54933;51.908;7.730;2023-11-18T12:58:38;1.40;;;1.10;;
13708;SDS011;54933;51.908;7.730;2023-11-18T13:01:04;5.47;;;1.40;;
13708;SDS011;54933;51.908;7.730;2023-11-18T13:03:29;4.00;;;1.27;;
13708;SDS011;54933;51.908;7.730;2023-11-18T13:05:55;3.80;;;1.10;;
13708;SDS011;54933;51.908;7.730;2023-11-18T13:08:21;1.30;;;1.10;;
13708;SDS011;54933;51.908;7.730;2023-11-18T13:10:47;5.23;;;1.00;;
13708;SDS011;54933;51.908;7.730;2023-11-18T13:13:13;5.03;;;1.10;;
13708;SDS011;54933;51.908;7.730;2023-11-18T13:15:42;1.97;;;1.17;;
13708;SDS011;54933;51.908;7.730;2023-11-18T13:18:07;2.43;;;1.00;;
13708;SDS011;54933;51.908;7.730;2023-11-18T13:20:34;30.73;;;4.70;;
13708;SDS011;54933;51.908;7.730;2023-11-18T13:23:04;19.67;;;3.10;;
13708;SDS011;54933;51.908;7.730;2023-11-18T13:25:36;15.80;;;2.80;;
13708;SDS011;54933;51.908;7.730;2023-11-18T13:28:04;17.03;;;3.37;;
13708;SDS011;54933;51.908;7.730;2023-11-18T13:30:32;10.03;;;2.10;;
13708;SDS011;54933;51.908;7.730;2023-11-18T13:32:58;8.03;;;1.50;;
13708;SDS011;54933;51.908;7.730;2023-11-18T13:35:23;9.10;;;1.80;;
13708;SDS011;54933;51.908;7.730;2023-11-18T13:37:49;13.23;;;1.77;;
13708;SDS011;54933;51.908;7.730;2023-11-18T13:40:15;4.70;;;1.43;;
13708;SDS011;54933;51.908;7.730;2023-11-18T13:42:43;4.60;;;1.50;;
13708;SDS011;54933;51.908;7.730;2023-11-18T13:45:11;7.93;;;1.40;;
13708;SDS011;54933;51.908;7.730;2023-11-18T13:47:40;8.40;;;1.30;;
13708;SDS011;54933;51.908;7.730;2023-11-18T13:50:07;2.17;;;1.43;;
13708;SDS011;54933;51.908;7.730;2023-11-18T13:52:34;7.33;;;1.30;;
13708;SDS011;54933;51.908;7.730;2023-11-18T13:54:59;5.83;;;1.67;;
13708;SDS011;54933;51.908;7.730;2023-11-18T13:57:25;5.87;;;1.50;;
13708;SDS011;54933;51.908;7.730;2023-11-18T13:59:51;4.80;;;1.70;;
13708;SDS011;54933;51.908;7.730;2023-11-18T14:02:17;3.67;;;1.20;;
13708;SDS011;54933;51.908;7.730;2023-11-18T14:04:42;5.67;;;1.10;;
13708;SDS011;54933;51.908;7.730;2023-11-18T14:07:09;8.47;;;3.27;;
13708;SDS011;54933;51.908;7.730;2023-11-18T14:09:38;10.67;;;2.13;;
13708;SDS011;54933;51.908;7.730;2023-11-18T14:12:07;6.27;;;2.07;;
13708;SDS011;54933;51.908;7.730;2023-11-18T14:14:33;9.87;;;2.10;;
13708;SDS011;54933;51.908;7.730;2023-11-18T14:16:58;11.07;;;2.20;;
13708;SDS011;54933;51.908;7.730;2023-11-18T14:19:24;4.40;;;1.60;;
13708;SDS011;54933;51.908;7.730;2023-11-18T14:21:50;24.47;;;2.00;;
13708;SDS011;54933;51.908;7.730;2023-11-18T14:24:18;32.27;;;6.07;;
13708;SDS011;54933;51.908;7.730;2023-11-18T14:26:44;50.13;;;5.67;;
13708;SDS011;54933;51.908;7.730;2023-11-18T14:29:09;82.77;;;9.57;;
13708;SDS011;54933;51.908;7.730;2023-11-18T14:31:36;60.47;;;5.80;;
13708;SDS011;54933;51.908;7.730;2023-11-18T14:34:02;44.47;;;5.87;;
13708;SDS011;54933;51.908;7.730;2023-11-18T14:36:28;33.47;;;4.60;;
13708;SDS011;54933;51.908;7.730;2023-11-18T14:38:54;41.43;;;7.10;;
13708;SDS011;54933;51.908;7.730;2023-11-18T14:41:19;26.67;;;5.17;;
13708;SDS011;54933;51.908;7.730;2023-11-18T14:43:49;31.13;;;4.33;;
13708;SDS011;54933;51.908;7.730;2023-11-18T14:46:15;22.67;;;2.90;;
13708;SDS011;54933;51.908;7.730;2023-11-18T14:48:40;35.43;;;3.80;;
13708;SDS011;54933;51.908;7.730;2023-11-18T14:51:05;28.53;;;4.20;;
13708;SDS011;54933;51.908;7.730;2023-11-18T14:53:32;37.13;;;3.33;;
13708;SDS011;54933;51.908;7.730;2023-11-18T14:55:58;49.47;;;5.17;;
13708;SDS011;54933;51.908;7.730;2023-11-18T14:58:24;29.33;;;3.40;;
13708;SDS011;54933;51.908;7.730;2023-11-18T15:00:50;22.67;;;3.13;;
13708;SDS011;54933;51.908;7.730;2023-11-18T15:03:16;18.23;;;3.83;;
13708;SDS011;54933;51.908;7.730;2023-11-18T15:05:42;21.73;;;2.67;;
13708;SDS011;54933;51.908;7.730;2023-11-18T15:08:10;20.23;;;3.03;;
13708;SDS011;54933;51.908;7.730;2023-11-18T15:10:39;17.50;;;2.07;;